createdAt,value
2022-08-23T00:00:12.932Z,91.10
2022-08-23T00:02:40.492Z,91.10
2022-08-23T00:05:10.117Z,91.20
2022-08-23T00:07:41.163Z,91.20
2022-08-23T00:10:12.615Z,91.20
2022-08-23T00:12:40.608Z,91.20
2022-08-23T00:15:08.894Z,91.20
2022-08-23T00:17:37.292Z,91.20
2022-08-23T00:20:12.663Z,91.20
2022-08-23T00:22:42.844Z,91.30
2022-08-23T00:25:12.853Z,91.30
2022-08-23T00:27:40.093Z,91.30
2022-08-23T00:30:08.785Z,91.30
2022-08-23T00:32:36.956Z,91.40
2022-08-23T00:35:04.317Z,91.40
2022-08-23T00:37:32.550Z,91.40
2022-08-23T00:40:00.536Z,91.50
2022-08-23T00:42:57.593Z,91.50
2022-08-23T00:46:06.319Z,91.60
2022-08-23T00:48:33.387Z,91.60
2022-08-23T00:51:26.339Z,91.50
2022-08-23T00:53:55.615Z,91.60
2022-08-23T00:56:24.657Z,91.60
2022-08-23T00:58:52.605Z,91.60
2022-08-23T01:01:19.620Z,91.60
2022-08-23T01:04:04.052Z,91.60
2022-08-23T01:07:02.597Z,91.60
2022-08-23T01:09:29.580Z,91.60
2022-08-23T01:12:19.123Z,91.60
2022-08-23T01:15:36.233Z,91.60
2022-08-23T01:18:07.820Z,91.60
2022-08-23T01:21:00.665Z,91.60
2022-08-23T01:23:45.996Z,91.60
2022-08-23T01:26:22.078Z,91.70
2022-08-23T01:28:49.369Z,91.70
2022-08-23T01:31:16.234Z,91.80
2022-08-23T01:33:43.791Z,91.80
2022-08-23T01:36:12.321Z,91.90
2022-08-23T01:38:42.359Z,91.90
2022-08-23T01:41:09.597Z,92.00
2022-08-23T01:43:36.475Z,92.00
2022-08-23T01:46:30.064Z,92.10
2022-08-23T01:48:58.521Z,92.10
2022-08-23T01:51:25.429Z,92.10
2022-08-23T01:53:52.465Z,92.10
2022-08-23T01:56:34.219Z,92.10
2022-08-23T01:59:07.402Z,92.20
2022-08-23T02:01:34.223Z,92.50
2022-08-23T02:04:05.186Z,92.30
2022-08-23T02:06:32.471Z,92.30
2022-08-23T02:09:03.690Z,92.30
2022-08-23T02:11:41.126Z,92.30
2022-08-23T02:14:10.298Z,92.30
2022-08-23T02:16:39.612Z,92.40
2022-08-23T02:19:10.620Z,92.30
2022-08-23T02:21:37.684Z,92.40
2022-08-23T02:24:18.027Z,92.50
2022-08-23T02:26:49.949Z,92.50
2022-08-23T02:29:23.595Z,92.50
2022-08-23T02:31:51.186Z,92.50
2022-08-23T02:34:18.519Z,92.50
2022-08-23T02:36:45.443Z,92.50
2022-08-23T02:39:13.140Z,92.50
2022-08-23T02:41:41.293Z,92.60
2022-08-23T02:44:08.368Z,92.60
2022-08-23T02:46:35.699Z,92.60
2022-08-23T02:49:02.547Z,92.60
2022-08-23T02:51:29.447Z,92.60
2022-08-23T02:53:56.362Z,92.60
2022-08-23T02:56:23.428Z,92.70
2022-08-23T02:58:54.506Z,92.70
2022-08-23T03:01:42.023Z,92.70
2022-08-23T03:04:10.057Z,92.80
2022-08-23T03:06:37.215Z,92.70
2022-08-23T03:09:04.617Z,92.80
2022-08-23T03:11:31.460Z,92.80
2022-08-23T03:13:58.297Z,92.80
2022-08-23T03:16:25.142Z,92.80
2022-08-23T03:18:52.199Z,92.80
2022-08-23T03:21:20.164Z,93.10
2022-08-23T03:23:48.449Z,92.90
2022-08-23T03:26:15.895Z,92.90
2022-08-23T03:28:43.251Z,92.90
2022-08-23T03:31:10.321Z,93.00
2022-08-23T03:33:37.221Z,93.00
2022-08-23T03:36:06.373Z,93.00
2022-08-23T03:38:33.867Z,93.10
2022-08-23T03:41:01.292Z,93.10
2022-08-23T03:43:28.211Z,93.10
2022-08-23T03:45:54.964Z,93.20
2022-08-23T03:48:21.986Z,93.40
2022-08-23T03:50:48.955Z,93.20
2022-08-23T03:53:16.484Z,93.20
2022-08-23T03:55:43.654Z,93.20
2022-08-23T03:58:11.287Z,93.20
2022-08-23T04:00:38.575Z,93.20
2022-08-23T04:03:05.522Z,93.20
2022-08-23T04:05:32.312Z,93.20
2022-08-23T04:07:59.399Z,93.30
2022-08-23T04:10:26.455Z,93.30
2022-08-23T04:12:54.960Z,93.30
2022-08-23T04:15:22.110Z,93.30
2022-08-23T04:17:48.952Z,93.30
2022-08-23T04:20:16.006Z,93.30
2022-08-23T04:22:42.818Z,93.30
2022-08-23T04:25:34.752Z,93.30
2022-08-23T04:27:59.878Z,93.30
2022-08-23T04:30:27.340Z,93.30
2022-08-23T04:32:54.148Z,93.30
2022-08-23T04:35:22.563Z,93.30
2022-08-23T04:37:49.464Z,93.40
2022-08-23T04:40:34.998Z,93.30
2022-08-23T04:43:02.502Z,93.30
2022-08-23T04:45:29.500Z,93.40
2022-08-23T04:47:56.750Z,93.40
2022-08-23T04:50:23.696Z,93.40
2022-08-23T04:52:50.501Z,93.40
2022-08-23T04:55:17.554Z,93.40
2022-08-23T04:57:44.819Z,93.40
2022-08-23T05:00:16.590Z,93.40
2022-08-23T05:02:43.463Z,93.40
2022-08-23T05:05:10.842Z,93.40
2022-08-23T05:07:42.637Z,93.40
2022-08-23T05:10:12.881Z,93.40
2022-08-23T05:12:40.226Z,93.40
2022-08-23T05:15:07.813Z,93.40
2022-08-23T05:17:34.616Z,93.40
2022-08-23T05:20:01.636Z,93.40
2022-08-23T05:22:28.874Z,93.40
2022-08-23T05:24:55.789Z,93.30
2022-08-23T05:27:22.614Z,93.30
2022-08-23T05:29:50.039Z,93.30
2022-08-23T05:32:16.825Z,93.30
2022-08-23T05:34:43.602Z,93.30
2022-08-23T05:37:10.516Z,93.20
2022-08-23T05:39:37.607Z,93.20
2022-08-23T05:42:06.211Z,93.20
2022-08-23T05:44:36.110Z,93.20
2022-08-23T05:47:10.816Z,93.20
2022-08-23T05:49:38.692Z,93.20
2022-08-23T05:52:07.685Z,93.20
2022-08-23T05:54:34.632Z,93.10
2022-08-23T05:57:02.295Z,93.10
2022-08-23T05:59:29.267Z,93.10
2022-08-23T06:01:57.495Z,93.10
2022-08-23T06:04:24.266Z,93.10
2022-08-23T06:06:51.100Z,93.10
2022-08-23T06:09:18.089Z,93.00
2022-08-23T06:11:46.469Z,93.00
2022-08-23T06:14:13.354Z,92.90
2022-08-23T06:16:43.764Z,92.90
2022-08-23T06:19:11.001Z,92.90
2022-08-23T06:21:38.563Z,92.90
2022-08-23T06:24:05.758Z,92.80
2022-08-23T06:26:34.679Z,92.80
2022-08-23T06:29:06.193Z,92.70
2022-08-23T06:31:45.799Z,92.70
2022-08-23T06:34:35.540Z,92.70
2022-08-23T06:37:08.118Z,92.60
2022-08-23T06:39:37.650Z,92.60
2022-08-23T06:42:36.460Z,92.60
2022-08-23T06:44:57.437Z,92.50
2022-08-23T06:47:24.414Z,92.40
2022-08-23T06:49:57.501Z,92.30
2022-08-23T06:52:25.781Z,92.20
2022-08-23T06:54:53.235Z,92.10
2022-08-23T06:57:21.364Z,92.00
2022-08-23T06:59:49.874Z,92.00
2022-08-23T07:02:16.873Z,91.90
2022-08-23T07:04:43.829Z,91.70
2022-08-23T07:07:11.879Z,91.50
2022-08-23T07:09:39.601Z,91.40
2022-08-23T07:12:06.737Z,91.30
2022-08-23T07:14:33.675Z,91.10
2022-08-23T07:17:01.358Z,91.00
2022-08-23T07:19:30.113Z,90.80
2022-08-23T07:21:57.864Z,90.70
2022-08-23T07:24:28.138Z,90.60
2022-08-23T07:26:57.554Z,90.60
2022-08-23T07:29:24.831Z,90.50
2022-08-23T07:31:54.764Z,90.50
2022-08-23T07:34:22.283Z,90.40
2022-08-23T07:36:49.794Z,90.30
2022-08-23T07:39:17.106Z,90.20
2022-08-23T07:41:44.390Z,90.20
2022-08-23T07:44:12.663Z,90.00
2022-08-23T07:46:43.682Z,89.80
2022-08-23T07:49:11.206Z,89.20
2022-08-23T07:51:38.478Z,88.80
2022-08-23T07:54:08.613Z,88.70
2022-08-23T07:56:35.733Z,88.60
2022-08-23T07:59:03.021Z,88.30
2022-08-23T08:01:30.105Z,87.90
2022-08-23T08:03:58.322Z,87.60
2022-08-23T08:06:28.553Z,87.50
2022-08-23T08:08:55.497Z,87.40
2022-08-23T08:11:25.377Z,87.20
2022-08-23T08:13:52.413Z,86.90
2022-08-23T08:16:30.943Z,86.70
2022-08-23T08:18:59.507Z,86.50
2022-08-23T08:21:29.409Z,86.40
2022-08-23T08:23:57.531Z,86.30
2022-08-23T08:26:24.872Z,86.10
2022-08-23T08:28:52.628Z,85.90
2022-08-23T08:31:19.803Z,85.50
2022-08-23T08:33:46.797Z,85.40
2022-08-23T08:36:35.349Z,85.30
2022-08-23T08:39:06.655Z,85.00
2022-08-23T08:41:45.141Z,84.90
2022-08-23T08:44:36.395Z,84.70
2022-08-23T08:47:13.175Z,84.40
2022-08-23T08:49:59.017Z,84.20
2022-08-23T08:52:46.834Z,83.80
2022-08-23T08:55:22.907Z,83.70
2022-08-23T08:57:50.024Z,83.20
2022-08-23T09:00:43.625Z,82.90
2022-08-23T09:03:14.481Z,82.60
2022-08-23T09:05:52.666Z,82.20
2022-08-23T09:08:42.852Z,81.80
2022-08-23T09:11:18.393Z,81.50
2022-08-23T09:14:06.286Z,81.20
2022-08-23T09:16:54.275Z,80.70
2022-08-23T09:19:22.588Z,80.20
2022-08-23T09:21:57.743Z,79.80
2022-08-23T09:24:24.709Z,78.90
2022-08-23T09:26:53.868Z,78.50
2022-08-23T09:29:25.112Z,78.20
2022-08-23T09:31:58.473Z,77.90
2022-08-23T09:34:37.362Z,77.60
2022-08-23T09:37:12.456Z,77.20
2022-08-23T09:39:41.722Z,76.80
2022-08-23T09:42:10.465Z,76.60
2022-08-23T09:44:42.143Z,76.20
2022-08-23T09:47:15.165Z,75.80
2022-08-23T09:49:42.796Z,75.50
2022-08-23T09:52:32.941Z,75.00
2022-08-23T09:55:06.843Z,74.40
2022-08-23T09:57:34.027Z,74.30
2022-08-23T10:00:03.987Z,74.20
2022-08-23T10:02:34.348Z,74.10
2022-08-23T10:05:04.420Z,73.80
2022-08-23T10:07:40.183Z,73.40
2022-08-23T10:10:33.816Z,73.20
2022-08-23T10:13:00.909Z,72.80
2022-08-23T10:15:56.323Z,73.10
2022-08-23T10:18:28.793Z,73.10
2022-08-23T10:21:23.783Z,72.90
2022-08-23T10:24:12.016Z,72.40
2022-08-23T10:26:55.725Z,71.80
2022-08-23T10:29:37.839Z,71.40
2022-08-23T10:32:07.445Z,70.90
2022-08-23T10:35:07.563Z,70.40
2022-08-23T10:37:45.231Z,69.80
2022-08-23T10:40:20.028Z,69.70
2022-08-23T10:42:55.980Z,69.20
2022-08-23T10:45:26.859Z,68.60
2022-08-23T10:48:06.637Z,67.90
2022-08-23T10:50:41.652Z,67.20
2022-08-23T10:53:11.487Z,66.20
2022-08-23T10:55:55.033Z,65.80
2022-08-23T10:58:24.508Z,65.10
2022-08-23T11:00:52.134Z,65.10
2022-08-23T11:03:29.747Z,65.30
2022-08-23T11:06:34.292Z,65.30
2022-08-23T11:09:04.994Z,65.00
2022-08-23T11:11:45.163Z,65.20
2022-08-23T11:14:34.303Z,65.30
2022-08-23T11:17:03.608Z,65.50
2022-08-23T11:19:47.873Z,65.60
2022-08-23T11:22:21.880Z,65.50
2022-08-23T11:24:52.215Z,65.50
2022-08-23T11:27:30.129Z,65.50
2022-08-23T11:29:56.944Z,65.30
2022-08-23T11:32:32.922Z,65.10
2022-08-23T11:35:43.084Z,64.90
2022-08-23T11:38:10.745Z,64.80
2022-08-23T11:40:57.435Z,65.60
2022-08-23T11:43:38.162Z,65.10
2022-08-23T11:46:24.025Z,65.00
2022-08-23T11:49:16.249Z,64.80
2022-08-23T11:51:58.759Z,64.70
2022-08-23T11:54:34.947Z,65.30
2022-08-23T11:57:31.454Z,64.80
2022-08-23T12:00:34.270Z,64.40
2022-08-23T12:03:02.653Z,63.70
2022-08-23T12:05:38.669Z,63.80
2022-08-23T12:08:05.920Z,64.20
2022-08-23T12:10:41.807Z,64.70
2022-08-23T12:13:31.463Z,65.00
2022-08-23T12:16:17.068Z,65.40
2022-08-23T12:18:47.906Z,65.50
2022-08-23T12:21:36.473Z,65.60
2022-08-23T12:24:21.719Z,66.20
2022-08-23T12:26:59.204Z,66.50
2022-08-23T12:29:33.035Z,66.90
2022-08-23T12:32:06.841Z,67.10
2022-08-23T12:34:55.403Z,66.90
2022-08-23T12:37:41.311Z,66.80
2022-08-23T12:40:12.823Z,66.80
2022-08-23T12:42:40.138Z,66.90
2022-08-23T12:45:26.170Z,67.10
2022-08-23T12:48:01.073Z,67.60
2022-08-23T12:50:32.971Z,68.10
2022-08-23T12:53:15.176Z,68.60
2022-08-23T12:55:44.272Z,69.00
2022-08-23T12:58:11.331Z,69.70
2022-08-23T13:00:50.503Z,70.30
2022-08-23T13:03:29.187Z,70.70
2022-08-23T13:06:01.983Z,71.30
2022-08-23T13:08:50.167Z,71.70
2022-08-23T13:11:19.420Z,71.50
2022-08-23T13:13:46.469Z,70.90
2022-08-23T13:16:43.594Z,70.70
2022-08-23T13:19:23.230Z,70.40
2022-08-23T13:22:14.693Z,70.60
2022-08-23T13:24:46.373Z,70.80
2022-08-23T13:27:38.155Z,70.70
2022-08-23T13:30:22.973Z,70.60
2022-08-23T13:32:51.585Z,70.70
2022-08-23T13:35:37.462Z,70.70
2022-08-23T13:38:10.257Z,70.70
2022-08-23T13:41:06.301Z,70.40
2022-08-23T13:43:38.460Z,70.40
2022-08-23T13:46:23.131Z,70.50
2022-08-23T13:49:01.753Z,69.50
2022-08-23T13:51:37.407Z,68.40
2022-08-23T13:54:09.394Z,68.10
2022-08-23T13:56:44.364Z,68.30
2022-08-23T13:59:40.405Z,68.50
2022-08-23T14:02:11.397Z,68.80
2022-08-23T14:04:38.774Z,68.50
2022-08-23T14:07:06.337Z,68.80
2022-08-23T14:09:36.638Z,69.50
2022-08-23T14:12:05.614Z,69.90
2022-08-23T14:14:36.642Z,69.70
2022-08-23T14:17:03.728Z,68.40
2022-08-23T14:22:19.000Z,66.50
2022-08-23T14:24:45.912Z,65.90
2022-08-23T14:27:12.827Z,65.80
2022-08-23T14:29:39.696Z,66.00
2022-08-23T14:32:06.538Z,66.00
2022-08-23T14:34:33.380Z,66.40
2022-08-23T14:39:47.143Z,66.30
2022-08-23T14:42:15.031Z,66.10
2022-08-23T14:44:41.851Z,65.30
2022-08-23T14:47:08.718Z,64.20
2022-08-23T14:49:36.219Z,63.50
2022-08-23T14:52:03.324Z,63.10
2022-08-23T14:54:30.219Z,62.80
2022-08-23T14:56:57.064Z,62.90
2022-08-23T14:59:23.997Z,62.90
2022-08-23T15:01:52.764Z,62.70
2022-08-23T15:04:21.717Z,62.60
2022-08-23T15:07:14.103Z,62.60
2022-08-23T15:09:35.620Z,62.60
2022-08-23T15:14:49.323Z,62.90
2022-08-23T15:17:16.261Z,63.40
2022-08-23T15:19:43.119Z,63.60
2022-08-23T15:22:21.603Z,63.70
2022-08-23T15:24:49.083Z,63.80
2022-08-23T15:27:16.202Z,64.10
2022-08-23T15:29:43.079Z,64.30
2022-08-23T15:32:12.411Z,64.70
2022-08-23T15:34:40.222Z,65.10
2022-08-23T15:37:13.023Z,65.00
2022-08-23T15:39:40.492Z,65.10
2022-08-23T15:42:07.578Z,65.30
2022-08-23T15:44:34.327Z,65.30
2022-08-23T15:47:01.389Z,65.20
2022-08-23T15:49:29.999Z,65.10
2022-08-23T15:51:59.777Z,65.20
2022-08-23T15:54:26.689Z,65.40
2022-08-23T15:56:53.581Z,65.60
2022-08-23T15:59:21.710Z,65.70
2022-08-23T16:01:48.629Z,65.80
2022-08-23T16:04:15.591Z,65.80
2022-08-23T16:06:42.607Z,65.90
2022-08-23T16:09:12.765Z,66.00
2022-08-23T16:11:43.791Z,66.10
2022-08-23T16:14:10.706Z,66.10
2022-08-23T16:16:38.917Z,66.30
2022-08-23T16:19:05.899Z,65.90
2022-08-23T16:21:33.008Z,65.80
2022-08-23T16:24:03.267Z,65.60
2022-08-23T16:26:34.917Z,65.50
2022-08-23T16:29:02.427Z,65.30
2022-08-23T16:31:39.361Z,65.40
2022-08-23T16:34:08.348Z,65.40
2022-08-23T16:36:35.137Z,65.40
2022-08-23T16:39:02.191Z,65.40
2022-08-23T16:41:29.162Z,65.20
2022-08-23T16:43:55.972Z,65.10
2022-08-23T16:46:23.000Z,64.50
2022-08-23T16:48:49.914Z,64.40
2022-08-23T16:51:17.814Z,64.50
2022-08-23T16:53:44.661Z,64.70
2022-08-23T16:56:24.067Z,65.10
2022-08-23T16:58:50.990Z,65.50
2022-08-23T17:01:19.724Z,65.80
2022-08-23T17:03:46.697Z,66.00
2022-08-23T17:06:13.540Z,66.10
2022-08-23T17:08:40.433Z,66.40
2022-08-23T17:11:08.302Z,66.70
2022-08-23T17:13:35.246Z,67.10
2022-08-23T17:16:02.205Z,67.30
2022-08-23T17:18:29.074Z,67.70
2022-08-23T17:20:55.922Z,67.90
2022-08-23T17:23:22.744Z,68.00
2022-08-23T17:25:49.607Z,68.10
2022-08-23T17:28:16.849Z,68.30
2022-08-23T17:30:43.813Z,68.50
2022-08-23T17:33:10.891Z,68.80
2022-08-23T17:35:39.425Z,68.80
2022-08-23T17:38:06.624Z,68.90
2022-08-23T17:40:35.996Z,68.90
2022-08-23T17:43:03.461Z,69.00
2022-08-23T17:45:33.440Z,69.00
2022-08-23T17:48:00.264Z,69.30
2022-08-23T17:50:27.277Z,69.40
2022-08-23T17:52:55.007Z,69.80
2022-08-23T17:55:21.978Z,70.20
2022-08-23T17:57:50.121Z,70.30
2022-08-23T18:00:18.090Z,70.60
2022-08-23T18:02:45.087Z,70.90
2022-08-23T18:05:11.906Z,71.10
2022-08-23T18:07:39.971Z,71.50
2022-08-23T18:10:07.572Z,71.70
2022-08-23T18:12:34.355Z,72.00
2022-08-23T18:15:04.492Z,72.30
2022-08-23T18:17:31.985Z,72.60
2022-08-23T18:19:59.009Z,72.80
2022-08-23T18:22:26.160Z,73.10
2022-08-23T18:24:53.090Z,73.30
2022-08-23T18:27:38.486Z,73.60
2022-08-23T18:30:08.699Z,74.00
2022-08-23T18:32:35.755Z,74.50
2022-08-23T18:35:02.695Z,74.80
2022-08-23T18:37:29.619Z,75.00
2022-08-23T18:39:56.435Z,75.30
2022-08-23T18:42:24.146Z,75.60
2022-08-23T18:44:50.911Z,75.80
2022-08-23T18:47:18.384Z,76.00
2022-08-23T18:49:45.293Z,76.20
2022-08-23T18:52:12.831Z,76.40
2022-08-23T18:54:39.662Z,76.70
2022-08-23T18:57:06.544Z,77.00
2022-08-23T18:59:33.334Z,77.20
2022-08-23T19:02:00.252Z,77.50
2022-08-23T19:04:27.151Z,77.80
2022-08-23T19:06:54.535Z,78.10
2022-08-23T19:09:21.783Z,78.30
2022-08-23T19:11:48.608Z,78.60
2022-08-23T19:14:15.430Z,78.80
2022-08-23T19:16:45.833Z,79.00
2022-08-23T19:19:15.270Z,79.20
2022-08-23T19:21:42.111Z,79.40
2022-08-23T19:24:08.860Z,79.60
2022-08-23T19:26:36.224Z,79.90
2022-08-23T19:29:06.256Z,80.00
2022-08-23T19:31:36.241Z,80.20
2022-08-23T19:34:06.425Z,80.40
2022-08-23T19:36:46.347Z,80.50
2022-08-23T19:39:14.572Z,80.60
2022-08-23T19:41:41.822Z,80.80
2022-08-23T19:44:08.848Z,81.00
2022-08-23T19:46:40.964Z,81.20
2022-08-23T19:49:09.642Z,81.40
2022-08-23T19:51:36.826Z,81.60
2022-08-23T19:54:04.676Z,82.40
2022-08-23T19:56:32.395Z,82.00
2022-08-23T19:58:59.262Z,82.10
2022-08-23T20:01:26.399Z,82.30
2022-08-23T20:03:53.687Z,82.50
2022-08-23T20:06:20.610Z,82.60
2022-08-23T20:08:47.483Z,82.60
2022-08-23T20:11:14.448Z,82.70
2022-08-23T20:13:41.411Z,82.80
2022-08-23T20:16:08.498Z,82.90
2022-08-23T20:18:35.363Z,83.00
2022-08-23T20:21:02.260Z,83.10
2022-08-23T20:23:47.565Z,83.10
2022-08-23T20:26:14.491Z,83.20
2022-08-23T20:28:50.441Z,83.30
2022-08-23T20:31:29.352Z,83.30
2022-08-23T20:33:56.449Z,83.40
2022-08-23T20:36:24.767Z,83.50
2022-08-23T20:38:51.825Z,83.60
2022-08-23T20:41:19.066Z,83.70
2022-08-23T20:43:47.834Z,83.90
2022-08-23T20:46:14.804Z,84.00
2022-08-23T20:48:41.647Z,84.10
2022-08-23T20:51:08.457Z,84.10
2022-08-23T20:53:35.437Z,84.70
2022-08-23T20:56:02.601Z,84.20
2022-08-23T20:58:29.800Z,84.30
2022-08-23T21:00:56.731Z,84.40
2022-08-23T21:03:23.801Z,84.40
2022-08-23T21:05:50.827Z,84.50
2022-08-23T21:08:17.721Z,84.60
2022-08-23T21:10:45.033Z,84.70
2022-08-23T21:13:12.201Z,84.80
2022-08-23T21:15:39.091Z,84.80
2022-08-23T21:18:06.381Z,84.90
2022-08-23T21:20:33.297Z,85.00
2022-08-23T21:23:00.345Z,85.10
2022-08-23T21:25:27.204Z,85.10
2022-08-23T21:27:53.945Z,85.20
2022-08-23T21:30:20.777Z,85.20
2022-08-23T21:32:48.023Z,85.30
2022-08-23T21:35:14.952Z,85.30
2022-08-23T21:37:41.714Z,85.40
2022-08-23T21:40:09.149Z,85.50
2022-08-23T21:42:35.967Z,85.70
2022-08-23T21:45:03.101Z,85.70
2022-08-23T21:47:29.871Z,85.80
2022-08-23T21:49:56.714Z,85.80
2022-08-23T21:52:23.503Z,85.90
2022-08-23T21:54:50.255Z,85.90
2022-08-23T21:57:17.268Z,86.00
2022-08-23T21:59:44.215Z,86.00
2022-08-23T22:02:11.128Z,86.10
2022-08-23T22:04:38.191Z,86.10
2022-08-23T22:07:05.078Z,86.10
2022-08-23T22:09:32.180Z,86.10
2022-08-23T22:12:00.152Z,86.20
2022-08-23T22:14:29.664Z,86.30
2022-08-23T22:16:58.934Z,86.40
2022-08-23T22:19:25.948Z,86.50
2022-08-23T22:21:53.111Z,86.60
2022-08-23T22:24:25.253Z,86.70
2022-08-23T22:26:53.313Z,86.70
2022-08-23T22:29:20.139Z,86.80
2022-08-23T22:31:47.870Z,86.90
2022-08-23T22:34:14.841Z,87.00
2022-08-23T22:36:42.018Z,87.00
2022-08-23T22:39:08.866Z,87.00
2022-08-23T22:41:35.827Z,87.10
2022-08-23T22:44:03.285Z,87.20
2022-08-23T22:46:31.288Z,87.20
2022-08-23T22:48:59.018Z,87.40
2022-08-23T22:51:29.660Z,87.40
2022-08-23T22:53:58.911Z,87.50
2022-08-23T22:56:30.260Z,87.60
2022-08-23T22:58:57.178Z,87.70
2022-08-23T23:01:29.279Z,87.80
2022-08-23T23:03:56.849Z,87.90
2022-08-23T23:06:24.328Z,88.10
2022-08-23T23:08:51.359Z,88.30
2022-08-23T23:11:18.514Z,88.40
2022-08-23T23:13:45.574Z,88.50
2022-08-23T23:16:14.719Z,89.10
2022-08-23T23:18:42.405Z,88.60
2022-08-23T23:21:09.273Z,88.70
2022-08-23T23:23:36.755Z,88.70
2022-08-23T23:26:03.757Z,88.70
2022-08-23T23:28:30.674Z,88.90
2022-08-23T23:30:57.762Z,88.90
2022-08-23T23:33:24.655Z,88.90
2022-08-23T23:35:54.604Z,88.90
2022-08-23T23:38:21.450Z,89.00
2022-08-23T23:40:48.288Z,89.10
2022-08-23T23:43:15.366Z,89.20
2022-08-23T23:45:42.393Z,89.30
2022-08-23T23:48:09.635Z,89.20
2022-08-23T23:50:41.555Z,89.30
2022-08-23T23:53:11.848Z,89.50
2022-08-23T23:55:38.655Z,89.60
2022-08-23T23:58:05.496Z,89.60
